Time;durP1;ratioP1;P1;durP2;ratioP2;P2;SDS_P1;SDS_P2;PMS_P1;PMS_P2;Temp;Humidity;BMP_temperature;BMP_pressure;BME280_temperature;BME280_humidity;BME280_pressure;Samples;Min_cycle;Max_cycle;Signal;HPM_P1;HPM_P2
2023/07/23 00:00:27;;;;;;;;;;;;;;;16.66;85.19;95662.31;5024350;28;19921;-74
2023/07/23 00:02:53;;;;;;;;;;;;;;;16.68;84.65;95670.81;5014850;28;19922;-74
2023/07/23 00:05:19;;;;;;;;;;;;;;;16.67;85.00;95672.59;5017266;28;19929;-74
2023/07/23 00:07:45;;;;;;;;;;;;;;;16.62;85.33;95671.38;5017171;28;19933;-74
2023/07/23 00:10:12;;;;;;;;;;;;;;;16.59;85.96;95667.25;5018840;28;19920;-74
2023/07/23 00:12:38;;;;;;;;;;;;;;;16.64;85.01;95661.59;5020108;28;20449;-74
2023/07/23 00:15:06;;;;;;;;;;;;;;;16.64;84.76;95669.44;5016246;28;19921;-74
2023/07/23 00:17:32;;;;;;;;;;;;;;;16.65;84.81;95664.09;5024880;28;19925;-74
2023/07/23 00:19:59;;;;;;;;;;;;;;;16.64;85.52;95664.22;5014502;28;19932;-74
2023/07/23 00:22:26;;;;;;;;;;;;;;;16.61;85.22;95665.31;5019392;28;20414;-74
2023/07/23 00:24:56;;;;;;;;;;;;;;;16.56;84.95;95662.28;5017804;28;19928;-74
2023/07/23 00:27:23;;;;;;;;;;;;;;;16.58;85.71;95659.53;5018549;28;19968;-74
2023/07/23 00:29:49;;;;;;;;;;;;;;;16.55;86.37;95654.56;5023088;28;19929;-74
2023/07/23 00:32:16;;;;;;;;;;;;;;;16.45;87.20;95659.78;5022038;28;19925;-74
2023/07/23 00:34:43;;;;;;;;;;;;;;;16.41;87.64;95661.00;5017248;28;19933;-74
2023/07/23 00:37:09;;;;;;;;;;;;;;;16.19;89.00;95654.22;5022276;28;19922;-74
2023/07/23 00:39:35;;;;;;;;;;;;;;;15.96;90.08;95659.66;5024697;28;20330;-74
2023/07/23 00:42:02;;;;;;;;;;;;;;;15.70;92.81;95656.66;5010829;28;19928;-74
2023/07/23 00:44:28;;;;;;;;;;;;;;;15.46;95.49;95656.06;5012887;28;19933;-74
2023/07/23 00:46:55;;;;;;;;;;;;;;;15.31;97.54;95655.56;5017562;28;19921;-74
2023/07/23 00:49:22;;;;;;;;;;;;;;;15.07;100.00;95650.63;5023929;28;19921;-74
2023/07/23 00:51:49;;;;;;;;;;;;;;;14.92;100.00;95654.50;5027961;28;19925;-74
2023/07/23 00:54:15;;;;;;;;;;;;;;;14.91;100.00;95652.84;5020416;28;19933;-74
2023/07/23 00:56:43;;;;;;;;;;;;;;;14.88;100.00;95651.31;5018024;28;19925;-74
2023/07/23 00:59:09;;;;;;;;;;;;;;;14.80;100.00;95650.28;5024993;28;19929;-74
2023/07/23 01:01:35;;;;;;;;;;;;;;;14.83;100.00;95647.41;5022234;28;19925;-74
2023/07/23 01:04:01;;;;;;;;;;;;;;;14.80;100.00;95643.31;5017964;28;19928;-74
2023/07/23 01:06:30;;;;;;;;;;;;;;;14.75;100.00;95643.66;5008970;28;19925;-74
2023/07/23 01:08:57;;;;;;;;;;;;;;;14.72;100.00;95641.31;5021106;28;20521;-74
2023/07/23 01:11:23;;;;;;;;;;;;;;;14.72;100.00;95635.25;5024875;28;19928;-74
2023/07/23 01:13:51;;;;;;;;;;;;;;;14.67;100.00;95634.81;5025168;28;20488;-74
2023/07/23 01:16:18;;;;;;;;;;;;;;;14.63;100.00;95636.84;5019182;28;20340;-74
2023/07/23 01:18:45;;;;;;;;;;;;;;;14.65;100.00;95626.31;5025806;28;19921;-74
2023/07/23 01:21:11;;;;;;;;;;;;;;;14.68;100.00;95628.63;5016769;28;19959;-74
2023/07/23 01:23:38;;;;;;;;;;;;;;;14.68;100.00;95628.63;5023445;28;19921;-74
2023/07/23 01:26:07;;;;;;;;;;;;;;;14.69;100.00;95622.50;5022265;28;19943;-74
2023/07/23 01:28:33;;;;;;;;;;;;;;;14.75;100.00;95629.78;5023418;28;20402;-74
2023/07/23 01:30:59;;;;;;;;;;;;;;;14.68;100.00;95626.03;5023604;28;19932;-74
2023/07/23 01:33:27;;;;;;;2.53;2.33;;;;;;;14.61;100.00;95620.50;5022976;28;19928;-74
2023/07/23 01:35:55;;;;;;;;;;;;;;;14.53;100.00;95617.66;5008938;28;20050;-74
2023/07/23 01:38:22;;;;;;;;;;;;;;;14.60;100.00;95621.44;5013502;28;19928;-74
2023/07/23 01:40:50;;;;;;;;;;;;;;;14.64;100.00;95616.81;5016736;28;20383;-74
2023/07/23 01:43:16;;;;;;;;;;;;;;;14.67;100.00;95613.97;5014212;28;19985;-74
2023/07/23 01:45:44;;;;;;;;;;;;;;;14.63;100.00;95615.97;5018065;28;20362;-74
2023/07/23 01:48:10;;;;;;;;;;;;;;;14.65;100.00;95619.31;5027198;28;19936;-74
2023/07/23 01:50:36;;;;;;;;;;;;;;;14.71;100.00;95613.56;5023511;28;19929;-74
2023/07/23 01:53:02;;;;;;;;;;;;;;;14.73;100.00;95609.06;5014572;28;19929;-74
2023/07/23 01:55:29;;;;;;;;;;;;;;;14.54;100.00;95611.53;5018191;28;19948;-74
2023/07/23 01:57:56;;;;;;;;;;;;;;;14.53;100.00;95617.66;5025523;28;19932;-74
2023/07/23 02:00:23;;;;;;;;;;;;;;;14.43;100.00;95612.38;5027381;28;19928;-74
2023/07/23 02:02:49;;;;;;;;;;;;;;;14.40;100.00;95611.78;5018259;28;20498;-74
2023/07/23 02:05:17;;;;;;;;;;;;;;;14.42;100.00;95604.66;5022227;28;19932;-74
2023/07/23 02:07:44;;;;;;;;;;;;;;;14.29;100.00;95602.22;5016182;28;20283;-74
2023/07/23 02:10:11;;;;;;;;;;;;;;;14.29;100.00;95608.25;5020446;28;19925;-74
2023/07/23 02:12:37;;;;;;;;;;;;;;;14.27;100.00;95598.91;5021722;28;19921;-74
2023/07/23 02:15:05;;;;;;;;;;;;;;;14.19;100.00;95611.72;5022259;28;19925;-75
2023/07/23 02:17:32;;;;;;;;;;;;;;;14.14;100.00;95611.25;5023811;28;19928;-74
2023/07/23 02:19:58;;;;;;;4.45;2.75;;;;;;;14.21;100.00;95610.66;5013463;28;20250;-74
2023/07/23 02:22:25;;;;;;;3.80;2.83;;;;;;;14.28;100.00;95611.81;5022418;28;20093;-74
2023/07/23 02:24:51;;;;;;;3.80;2.50;;;;;;;14.29;100.00;95605.66;5015193;28;20049;-74
2023/07/23 02:27:17;;;;;;;3.20;2.70;;;;;;;14.34;100.00;95610.47;5020982;28;20057;-74
2023/07/23 02:29:44;;;;;;;;;;;;;;;14.43;100.00;95611.53;5010695;28;20042;-74
2023/07/23 02:32:11;;;;;;;;;;;;;;;14.51;100.00;95611.78;5012893;28;19925;-74
2023/07/23 02:34:38;;;;;;;;;;;;;;;14.56;100.00;95611.41;5015436;28;19921;-74
2023/07/23 02:37:04;;;;;;;;;;;;;;;14.65;100.00;95618.47;5019614;28;20009;-74
2023/07/23 02:39:31;;;;;;;;;;;;;;;14.71;100.00;95617.97;5021441;28;19925;-74
2023/07/23 02:41:57;;;;;;;;;;;;;;;14.77;100.00;95620.09;5024793;28;19968;-74
2023/07/23 02:44:24;;;;;;;;;;;;;;;14.77;100.00;95620.09;5022271;28;19921;-74
2023/07/23 02:46:50;;;;;;;;;;;;;;;14.68;100.00;95620.81;5023011;28;20370;-74
2023/07/23 02:49:18;;;;;;;;;;;;;;;14.75;100.00;95614.97;5016505;28;19936;-74
2023/07/23 02:51:44;;;;;;;;;;;;;;;14.83;100.00;95618.72;5014329;28;19925;-74
2023/07/23 02:54:10;;;;;;;;;;;;;;;14.85;100.00;95615.06;5016388;28;19968;-74
2023/07/23 02:56:37;;;;;;;;;;;;;;;14.84;100.00;95613.41;5016359;28;19921;-74
2023/07/23 02:59:03;;;;;;;;;;;;;;;14.84;100.00;95618.63;5023575;28;19929;-74
2023/07/23 03:01:29;;;;;;;;;;;;;;;14.89;100.00;95621.66;5009168;28;19981;-74
2023/07/23 03:03:56;;;;;;;;;;;;;;;14.83;100.00;95619.59;5013293;28;19925;-74
2023/07/23 03:06:23;;;;;;;;;;;;;;;14.58;100.00;95618.16;5023643;28;19922;-74
2023/07/23 03:08:50;;;;;;;;;;;;;;;14.55;100.00;95621.00;5021914;28;20445;-74
2023/07/23 03:11:16;;;;;;;;;;;;;;;14.59;100.00;95624.19;5028547;28;19925;-74
2023/07/23 03:13:42;;;;;;;;;;;;;;;14.59;100.00;95616.38;5017104;28;19921;-74
2023/07/23 03:16:09;;;;;;;;;;;;;;;14.64;100.00;95616.81;5025314;28;20156;-74
2023/07/23 03:18:35;;;;;;;;;;;;;;;14.66;100.00;95620.13;5023672;28;19925;-74
2023/07/23 03:21:01;;;;;;;;;;;;;;;14.69;100.00;95625.91;5021497;28;20371;-74
2023/07/23 03:23:29;;;;;;;;;;;;;;;14.70;100.00;95624.13;5024454;28;19937;-74
2023/07/23 03:25:55;;;;;;;;;;;;;;;14.68;100.00;95619.06;5022924;28;19924;-74
2023/07/23 03:28:21;;;;;;;;;;;;;;;14.66;100.00;95618.34;5027269;28;19922;-74
2023/07/23 03:30:48;;;;;;;;;;;;;;;14.62;100.00;95614.34;5014743;28;19933;-74
2023/07/23 03:33:14;;;;;;;;;;;;;;;14.53;100.00;95620.28;5016310;28;20406;-74
2023/07/23 03:35:40;;;;;;;;;;;;;;;14.61;100.00;95623.13;5018247;28;19932;-74
2023/07/23 03:38:07;;;;;;;;;;;;;;;14.65;100.00;95621.09;5019791;28;19932;-74
2023/07/23 03:40:34;;;;;;;;;;;;;;;14.68;100.00;95615.59;5019196;28;19925;-74
2023/07/23 03:43:00;;;;;;;;;;;;;;;14.71;100.00;95617.97;5007201;28;19975;-74
2023/07/23 03:45:27;;;;;;;;;;;;;;;14.71;100.00;95626.59;5013855;28;19921;-74
2023/07/23 03:47:53;;;;;;;;;;;;;;;14.60;100.00;95623.22;5026806;28;19920;-74
2023/07/23 03:50:19;;;;;;;;;;;;;;;14.49;100.00;95624.06;5022361;28;19925;-74
2023/07/23 03:52:45;;;;;;;;;;;;;;;14.24;100.00;95626.03;5005027;28;19925;-74
2023/07/23 03:55:12;;;;;;;;;;;;;;;14.23;100.00;95624.38;5022051;28;19928;-74
2023/07/23 03:57:40;;;;;;;;;;;;;;;14.22;100.00;95619.28;5016363;28;20268;-74
2023/07/23 04:00:08;;;;;;;;;;;;;;;14.14;100.00;95624.28;5024228;28;19928;-73
2023/07/23 04:02:34;;;;;;;;;;;;;;;14.16;100.00;95627.56;5010936;28;20012;-73
2023/07/23 04:05:00;;;;;;;;;;;;;;;14.02;100.00;95624.31;5014123;28;20241;-74
2023/07/23 04:07:26;;;;;;;;;;;;;;;13.95;100.00;95624.91;5015925;28;19975;-74
2023/07/23 04:09:54;;;;;;;;;;;;;;;13.87;100.00;95622.91;5015114;28;19925;-74
2023/07/23 04:12:21;;;;;;;;;;;;;;;13.85;100.00;95626.56;5022311;28;20303;-74
2023/07/23 04:14:49;;;;;;;5.60;2.53;;;;;;;13.84;100.00;95633.56;5013985;28;19948;-74
2023/07/23 04:17:15;;;;;;;4.57;2.92;;;;;;;13.86;100.00;95623.84;5016970;28;20103;-74
2023/07/23 04:19:42;;;;;;;2.58;2.20;;;;;;;14.00;100.00;95628.78;5013929;28;20128;-74
2023/07/23 04:22:08;;;;;;;;;;;;;;;14.14;100.00;95637.31;5017382;28;20565;-74
2023/07/23 04:24:34;;;;;;;;;;;;;;;14.15;100.00;95631.97;5015631;28;19921;-74
2023/07/23 04:27:01;;;;;;;;;;;;;;;14.13;100.00;95631.28;5016408;28;19924;-74
2023/07/23 04:29:27;;;;;;;;;;;;;;;14.17;100.00;95631.84;5021604;28;20513;-74
2023/07/23 04:31:55;;;;;;;2.42;2.20;;;;;;;14.20;100.00;95631.59;5016961;28;19932;-75
2023/07/23 04:34:21;;;;;;;7.15;2.55;;;;;;;14.17;100.00;95635.28;5020357;28;20400;-74
2023/07/23 04:36:51;;;;;;;;;;;;;;;14.21;100.00;95639.31;5012181;28;20052;-74
2023/07/23 04:39:18;;;;;;;;;;;;;;;14.28;100.00;95632.66;5019578;28;19921;-74
2023/07/23 04:41:44;;;;;;;;;;;;;;;14.39;100.00;95638.78;5017754;28;19921;-74
2023/07/23 04:44:10;;;;;;;;;;;;;;;14.50;100.00;95630.97;5019577;28;19925;-74
2023/07/23 04:46:36;;;;;;;;;;;;;;;14.55;100.00;95634.03;5024029;28;19928;-74
2023/07/23 04:49:04;;;;;;;;;;;;;;;14.72;100.00;95635.25;5017356;28;19921;-74
2023/07/23 04:51:30;;;;;;;;;;;;;;;14.71;100.00;95638.81;5016405;28;20310;-74
2023/07/23 04:53:57;;;;;;;;;;;;;;;14.98;100.00;95651.38;5026316;28;19928;-74
2023/07/23 04:56:23;;;;;;;;;;;;;;;15.05;100.00;95654.31;5017673;28;20370;-74
2023/07/23 04:58:49;;;;;;;;;;;;;;;15.12;100.00;95642.41;5023612;28;19932;-74
2023/07/23 05:01:15;;;;;;;;;;;;;;;15.31;100.00;95642.53;5017098;28;19925;-74
2023/07/23 05:03:42;;;;;;;;;;;;;;;15.39;100.00;95645.34;5007624;28;19921;-74
2023/07/23 05:06:09;;;;;;;;;;;;;;;15.54;100.00;95650.25;5015084;28;20066;-74
2023/07/23 05:08:36;;;;;;;;;;;;;;;15.61;100.00;95641.75;5013375;28;19936;-74
2023/07/23 05:11:03;;;;;;;;;;;;;;;15.79;100.00;95644.59;5022359;28;19921;-74
2023/07/23 05:13:29;;;;;;;;;;;;;;;15.91;100.00;95637.50;5019215;28;19928;-74
2023/07/23 05:15:56;;;;;;;;;;;;;;;16.02;100.00;95640.03;5016278;28;20302;-74
2023/07/23 05:18:22;;;;;;;;;;;;;;;16.15;100.00;95635.38;5013449;28;20413;-75
2023/07/23 05:20:49;;;;;;;;;;;;;;;16.14;100.00;95638.13;5008230;28;19921;-74
2023/07/23 05:23:16;;;;;;;;;;;;;;;16.23;99.91;95633.88;5015657;28;19956;-73
2023/07/23 05:25:43;;;;;;;;;;;;;;;16.40;100.00;95633.22;5013266;28;19944;-73
2023/07/23 05:28:09;;;;;;;;;;;;;;;16.51;99.22;95632.28;5018281;28;19928;-73
2023/07/23 05:30:35;;;;;;;;;;;;;;;16.67;98.80;95633.38;5011589;28;19921;-74
2023/07/23 05:33:02;;;;;;;;;;;;;;;16.77;98.07;95632.59;5024198;28;20271;-74
2023/07/23 05:35:28;;;;;;;;;;;;;;;16.95;99.30;95630.97;5011993;28;19929;-73
2023/07/23 05:37:54;;;;;;;;;;;;;;;17.11;95.70;95640.84;5020493;28;19920;-73
2023/07/23 05:40:22;;;;;;;;;;;;;;;17.22;95.06;95643.31;5022727;28;19929;-74
2023/07/23 05:42:48;;;;;;;;;;;;;;;17.29;94.60;95638.34;5013329;28;19928;-73
2023/07/23 05:45:15;;;;;;;;;;;;;;;17.46;93.35;95634.97;5016891;28;20331;-73
2023/07/23 05:47:41;;;;;;;;;;;;;;;17.64;91.81;95632.47;5008016;28;19928;-73
2023/07/23 05:50:08;;;;;;;;;;;;;;;17.78;90.49;95642.50;5021422;28;19928;-74
2023/07/23 05:52:35;;;;;;;;;;;;;;;18.06;89.92;95639.94;5019465;28;19976;-74
2023/07/23 05:55:01;;;;;;;;;;;;;;;18.26;88.35;95636.22;5017585;28;19929;-73
2023/07/23 05:57:29;;;;;;;;;;;;;;;18.35;87.44;95630.09;5016044;28;19925;-73
2023/07/23 05:59:55;;;;;;;;;;;;;;;18.56;86.47;95629.00;5018259;28;19928;-73
2023/07/23 06:02:21;;;;;;;;;;;;;;;18.72;85.11;95637.03;5009657;28;20283;-73
2023/07/23 06:04:47;;;;;;;;;;;;;;;18.81;84.54;95636.16;5022790;28;19925;-73
2023/07/23 06:07:14;;;;;;;;;;;;;;;18.73;84.07;95630.03;5019704;28;19925;-73
2023/07/23 06:09:40;;;;;;;;;;;;;;;18.75;85.12;95633.31;5018993;28;19932;-73
2023/07/23 06:12:06;;;;;;;;;;;;;;;18.75;83.22;95642.00;5019614;28;19928;-73
2023/07/23 06:14:34;;;;;;;;;;;;;;;18.54;84.24;95637.03;5018933;28;19921;-73
2023/07/23 06:17:00;;;;;;;;;;;;;;;18.58;84.71;95646.25;5020855;28;20399;-72
2023/07/23 06:19:27;;;;;;;;;;;;;;;18.45;84.70;95648.38;5023260;28;20271;-73
2023/07/23 06:21:53;;;;;;;;;;;;;;;18.52;84.88;95651.25;5019360;28;19921;-73
2023/07/23 06:24:19;;;;;;;;;;;;;;;18.59;84.00;95645.25;5019455;28;19928;-73
2023/07/23 06:26:45;;;;;;;;;;;;;;;18.43;85.47;95645.09;5019068;28;19971;-73
2023/07/23 06:29:12;;;;;;;;;;;;;;;18.54;86.21;95650.13;5018174;28;19967;-73
2023/07/23 06:31:39;;;;;;;;;;;;;;;18.72;85.45;95641.47;5017157;28;19941;-73
2023/07/23 06:34:06;;;;;;;;;;;;;;;18.89;83.94;95645.09;5017792;28;19921;-73
2023/07/23 06:36:32;;;;;;;;;;;;;;;19.06;83.20;95647.69;5012416;28;20440;-73
2023/07/23 06:38:59;;;;;;;;;;;;;;;19.19;81.50;95643.84;5019123;28;19927;-73
2023/07/23 06:41:27;;;;;;;;;;;;;;;19.27;78.96;95649.16;5016187;28;20380;-73
2023/07/23 06:43:53;;;;;;;;;;;;;;;19.25;79.89;95638.81;5018604;28;20298;-73
2023/07/23 06:46:20;;;;;;;;;;;;;;;19.31;78.53;95642.63;5021577;28;19932;-73
2023/07/23 06:48:48;;;;;;;;;;;;;;;19.34;79.55;95635.25;5024030;28;19921;-73
2023/07/23 06:51:14;;;;;;;;;;;;;;;19.48;78.57;95639.13;5020663;28;20020;-73
2023/07/23 06:53:42;;;;;;;;;;;;;;;19.71;75.82;95636.03;5026856;28;19979;-73
2023/07/23 06:56:08;;;;;;;;;;;;;;;20.05;74.09;95638.66;5012595;28;19926;-73
2023/07/23 06:58:36;;;;;;;;;;;;;;;20.36;70.82;95641.56;5029299;28;20295;-73
2023/07/23 07:01:02;;;;;;;;;;;;;;;20.60;68.77;95632.13;5022374;28;19932;-73
2023/07/23 07:03:29;;;;;;;;;;;;;;;20.82;67.32;95631.50;5029931;28;19921;-73
2023/07/23 07:05:56;;;;;;;;;;;;;;;21.01;64.77;95628.53;5016861;28;19980;-73
2023/07/23 07:08:23;;;;;;;;;;;;;;;21.20;64.83;95635.28;5020673;28;19929;-73
2023/07/23 07:10:49;;;;;;;;;;;;;;;21.79;62.30;95627.16;5023518;28;19948;-73
2023/07/23 07:13:16;;;;;;;;;;;;;;;22.11;60.95;95625.44;5021500;28;19921;-73
2023/07/23 07:15:42;;;;;;;;;;;;;;;22.12;61.54;95624.44;5015633;28;19996;-72
2023/07/23 07:18:08;;;;;;;;;;;;;;;22.12;60.08;95624.44;5023643;28;20338;-74
2023/07/23 07:20:35;;;;;;;;;;;;;;;21.98;58.87;95626.78;5025560;28;20307;-73
2023/07/23 07:23:02;;;;;;;;;;;;;;;22.00;58.84;95634.53;5022863;28;19940;-73
2023/07/23 07:25:29;;;;;;;;;;;;;;;21.97;59.79;95630.41;5017900;28;19936;-72
2023/07/23 07:27:55;;;;;;;;;;;;;;;21.92;59.78;95631.94;5022615;28;20000;-73
2023/07/23 07:30:21;;;;;;;;;;;;;;;21.72;60.62;95626.19;5015258;28;20330;-73
2023/07/23 07:32:47;;;;;;;;;;;;;;;21.52;61.66;95627.56;5021836;28;19921;-73
2023/07/23 07:35:14;;;;;;;;;;;;;;;21.49;60.84;95637.44;5019675;28;19928;-72
2023/07/23 07:37:40;;;;;;;;;;;;;;;21.49;61.23;95624.28;5012350;28;19932;-72
2023/07/23 07:40:09;;;;;;;;;;;;;;;21.55;61.21;95627.25;5019752;28;19921;-72
2023/07/23 07:42:35;;;;;;;;;;;;;;;21.57;60.89;95626.06;5020441;28;20008;-72
2023/07/23 07:45:02;;;;;;;;;;;;;;;21.67;59.79;95628.53;5007521;28;19925;-72
2023/07/23 07:47:28;;;;;;;;;;;;;;;21.88;59.48;95625.34;5022466;28;19989;-72
2023/07/23 07:49:54;;;;;;;;;;;;;;;22.12;59.35;95627.06;5024114;28;19925;-72
2023/07/23 07:52:20;;;;;;;;;;;;;;;22.15;58.75;95618.84;5011536;28;19980;-72
2023/07/23 07:54:47;;;;;;;;;;;;;;;21.99;58.92;95628.44;5006911;28;19921;-72
2023/07/23 07:57:15;;;;;;;;;;;;;;;21.80;58.55;95634.06;5019041;28;19948;-72
2023/07/23 07:59:41;;;;;;;;;;;;;;;21.83;57.57;95631.09;5020295;28;19925;-71
2023/07/23 08:02:08;;;;;;;;;;;;;;;21.73;58.21;95627.88;5019142;28;20016;-72
2023/07/23 08:04:35;;;;;;;;;;;;;;;21.69;59.24;95637.06;5020525;28;19929;-72
2023/07/23 08:07:02;;;;;;;;;;;;;;;21.66;59.25;95643.53;5017961;28;19968;-72
2023/07/23 08:09:29;;;;;;;;;;;;;;;21.64;59.78;95631.50;5008020;28;19922;-72
2023/07/23 08:11:55;;;;;;;;;;;;;;;21.74;59.27;95645.31;5008494;28;20419;-72
2023/07/23 08:14:24;;;;;;;;;;;;;;;21.64;58.98;95639.41;5008833;28;19926;-72
2023/07/23 08:16:54;;;;;;;;;;;;;;;21.80;59.66;95651.72;5022403;28;19925;-72
2023/07/23 08:19:20;;;;;;;;;;;;;;;22.09;58.10;95645.88;5017219;28;19937;-72
2023/07/23 08:21:46;;;;;;;;;;;;;;;22.15;58.80;95643.41;5011116;28;19925;-72
2023/07/23 08:24:13;;;;;;;;;;;;;;;22.20;58.48;95641.06;5006131;28;19928;-73
2023/07/23 08:26:40;;;;;;;;;;;;;;;22.12;58.72;95634.97;5012220;28;20336;-73
2023/07/23 08:29:08;;;;;;;;;;;;;;;22.09;59.21;95630.84;5018336;28;19921;-71
2023/07/23 08:31:37;;;;;;;;;;;;;;;21.89;58.55;95634.91;5019819;28;19973;-73
2023/07/23 08:34:03;;;;;;;;;;;;;;;21.81;60.16;95637.56;5011839;28;20388;-72
2023/07/23 08:36:30;;;;;;;;;;;;;;;21.79;59.42;95643.00;5019239;28;20016;-72
2023/07/23 08:38:56;;;;;;;;;;;;;;;21.68;60.07;95638.06;5021304;28;19920;-72
2023/07/23 08:41:24;;;;;;;;;;;;;;;21.67;60.55;95634.63;5010037;28;19925;-72
2023/07/23 08:44:11;;;;;;;;;;;;;;;21.55;61.13;95632.50;5001232;28;20411;-73
2023/07/23 08:46:44;;;;;;;;;;;;;;;21.57;60.91;95641.88;5014850;28;19935;-71
2023/07/23 08:49:11;;;;;;;;;;;;;;;21.56;61.63;95639.41;5018030;28;19933;-72
2023/07/23 08:51:44;;;;;;;;;;;;;;;21.65;62.03;95638.41;5015378;28;20032;-72
2023/07/23 08:54:12;;;;;;;;;;;;;;;21.62;62.47;95638.75;5012750;28;19928;-73
2023/07/23 08:56:39;;;;;;;;;;;;;;;21.55;60.67;95637.78;5013951;28;19937;-72
2023/07/23 08:59:06;;;;;;;;;;;;;;;21.49;61.72;95634.81;5017791;28;19925;-71
2023/07/23 09:01:33;;;;;;;;;;;;;;;21.64;61.45;95636.75;5011491;28;20175;-72
2023/07/23 09:04:01;;;;;;;;;;;;;;;21.70;61.95;95630.84;5019209;28;20024;-70
2023/07/23 09:06:28;;;;;;;;;;;;;;;21.77;60.87;95629.16;5008740;28;19921;-72
2023/07/23 09:08:55;;;;;;;;;;;;;;;21.92;60.86;95629.28;5008159;28;19980;-73
2023/07/23 09:11:21;;;;;;;;;;;;;;;21.78;60.81;95633.44;5021493;28;19928;-73
2023/07/23 09:13:48;;;;;;;;;;;;;;;21.61;60.28;95631.81;5015118;28;19976;-72
2023/07/23 09:16:14;;;;;;;;;;;;;;;21.54;60.54;95633.47;5018343;28;19925;-73
2023/07/23 09:18:41;;;;;;;;;;;;;;;21.52;61.19;95638.13;5017890;28;19929;-72
2023/07/23 09:21:09;;;;;;;;;;;;;;;21.50;61.27;95633.00;5023588;28;20349;-73
2023/07/23 09:23:36;;;;;;;;;;;;;;;21.61;61.75;95639.72;5018030;28;19948;-73
2023/07/23 09:26:02;;;;;;;;;;;;;;;21.58;60.37;95625.09;5018114;28;19928;-73
2023/07/23 09:28:28;;;;;;;;;;;;;;;21.76;60.65;95630.13;5015353;28;19928;-73
2023/07/23 09:30:55;;;;;;;;;;;;;;;21.97;60.22;95626.97;5016982;28;19925;-73
2023/07/23 09:33:22;;;;;;;;;;;;;;;22.21;59.83;95624.28;5013067;28;19944;-73
2023/07/23 09:35:48;;;;;;;;;;;;;;;22.42;59.06;95615.72;5003968;28;20035;-72
2023/07/23 09:38:15;;;;;;;;;;;;;;;22.47;57.94;95623.13;5009637;28;20585;-72
2023/07/23 09:40:42;;;;;;;;;;;;;;;22.53;58.12;95625.09;5027858;22;19929;-72
2023/07/23 09:43:09;;;;;;;;;;;;;;;22.23;58.54;95618.81;5066384;28;20336;-72
2023/07/23 09:45:36;;;;;;;;;;;;;;;22.15;58.83;95624.13;5071058;28;19928;-72
2023/07/23 09:48:02;;;;;;;;;;;;;;;22.13;58.70;95623.44;5067279;28;19927;-73
2023/07/23 09:50:29;;;;;;;;;;;;;;;22.13;60.06;95618.97;5063441;28;20289;-73
2023/07/23 09:52:55;;;;;;;;;;;;;;;22.28;59.40;95616.47;5050785;28;20382;-73
2023/07/23 09:55:23;;;;;;;;;;;;;;;22.41;58.63;95616.75;5046135;28;19924;-72
2023/07/23 09:57:50;;;;;;;;;;;;;;;22.62;58.15;95616.13;5051162;28;20344;-73
2023/07/23 10:00:17;;;;;;;;;;;;;;;22.66;56.67;95606.88;5050851;28;19921;-73
2023/07/23 10:02:44;;;;;;;;;;;;;;;23.07;56.26;95613.72;5048381;28;19927;-73
2023/07/23 10:05:12;;;;;;;;;;;;;;;23.25;55.40;95611.56;5046227;28;19960;-73
2023/07/23 10:07:39;;;;;;;;;;;;;;;23.48;54.22;95611.53;5049667;28;19975;-73
2023/07/23 10:10:06;;;;;;;;;;;;;;;23.60;53.25;95609.25;5048356;28;19925;-72
2023/07/23 10:12:33;;;;;;;;;;;;;;;24.01;53.30;95603.56;5039536;28;20259;-73
2023/07/23 10:15:00;;;;;;;;;;;;;;;24.35;50.35;95590.53;5047311;28;19979;-73
2023/07/23 10:17:28;;;;;;;;;;;;;;;24.46;48.97;95588.44;5055015;28;19921;-73
2023/07/23 10:19:55;;;;;;;;;;;;;;;24.49;48.97;95585.44;5045207;28;19960;-72
2023/07/23 10:22:22;;;;;;;;;;;;;;;24.29;48.87;95588.66;5048421;28;19928;-73
2023/07/23 10:24:51;;;;;;;;;;;;;;;24.28;48.84;95586.97;5048892;28;19967;-73
2023/07/23 10:27:17;;;;;;;;;;;;;;;24.46;49.17;95589.25;5051253;28;19924;-73
2023/07/23 10:30:10;;;;;;;;;;;;;;;24.49;48.15;95578.31;5041937;28;20096;-73
2023/07/23 10:32:37;;;;;;;;;;;;;;;24.68;47.14;95570.75;5050876;28;19936;-73
2023/07/23 10:35:03;;;;;;;;;;;;;;;24.94;47.17;95581.59;5050255;28;19931;-72
2023/07/23 10:37:29;;;;;;;;;;;;;;;25.27;45.96;95581.09;5054175;28;19924;-72
2023/07/23 10:39:58;;;;;;;;;;;;;;;25.38;43.01;95577.91;5045004;28;20397;-71
2023/07/23 10:42:41;;;;;;;;;;;;;;;25.71;42.16;95574.69;5044440;28;20469;-72
2023/07/23 10:45:25;;;;;;;;;;;;;;;25.88;41.57;95577.84;5049970;28;20421;-72
2023/07/23 10:47:52;;;;;;;;;;;;;;;25.04;42.51;95557.44;5048234;28;20329;-72
2023/07/23 10:50:19;;;;;;;;;;;;;;;25.28;43.48;95572.94;5050097;28;19921;-72
2023/07/23 10:52:46;;;;;;;;;;;;;;;25.39;42.85;95576.91;5049940;28;20294;-72
2023/07/23 10:55:12;;;;;;;;;;;;;;;25.33;42.63;95581.16;5049444;28;19943;-72
2023/07/23 10:57:40;;;;;;;;;;;;;;;25.52;41.80;95563.75;5057464;28;19927;-73
2023/07/23 11:00:19;;;;;;;;;;;;;;;25.52;40.98;95562.94;5049924;28;19920;-73
2023/07/23 11:02:48;;;;;;;;;;;;;;;25.62;41.45;95555.44;5043996;28;20299;-73
2023/07/23 11:05:14;;;;;;;;;;;;;;;25.96;40.94;95557.28;5048352;28;19921;-73
2023/07/23 11:07:40;;;;;;;;;;;;;;;26.04;40.14;95553.66;5053561;28;19956;-73
2023/07/23 11:10:18;;;;;;;;;;;;;;;26.08;39.70;95541.63;5054303;28;19924;-73
2023/07/23 11:12:44;;;;;;;;;;;;;;;26.08;39.66;95546.94;5053203;28;19925;-72
2023/07/23 11:15:13;;;;;;;;;;;;;;;26.01;39.53;95546.91;5054102;28;19935;-72
2023/07/23 11:17:40;;;;;;;;;;;;;;;26.18;40.96;95539.41;5051894;28;19921;-73
2023/07/23 11:20:09;;;;;;;;;;;;;;;26.12;39.19;95537.56;5053440;28;19928;-73
2023/07/23 11:22:41;;;;;;;;;;;;;;;26.13;39.05;95544.50;5050372;28;19947;-73
2023/07/23 11:25:14;;;;;;;;;;;;;;;25.84;40.24;95545.56;5043033;28;19924;-73
2023/07/23 11:27:40;;;;;;;;;;;;;;;25.59;40.99;95538.09;5043165;28;19921;-73
2023/07/23 11:30:07;;;;;;;;;;;;;;;25.92;41.53;95539.28;5051214;28;19920;-73
2023/07/23 11:32:34;;;;;;;;;;;;;;;25.79;40.12;95535.56;5050935;28;19921;-73
2023/07/23 11:35:01;;;;;;;;;;;;;;;25.72;40.31;95555.91;5043947;28;19925;-73
2023/07/23 11:37:28;;;;;;;;;;;;;;;25.73;39.10;95549.56;5051658;28;19921;-73
2023/07/23 11:39:55;;;;;;;;;;;;;;;25.43;40.33;95548.97;5050617;28;19937;-73
2023/07/23 11:42:21;;;;;;;;;;;;;;;25.41;41.37;95555.50;5052853;28;20439;-75
2023/07/23 11:44:59;;;;;;;;;;;;;;;25.20;41.19;95551.06;5051506;28;20378;-73
2023/07/23 11:47:25;;;;;;;;;;;;;;;25.00;41.99;95549.06;5052765;28;19967;-73
2023/07/23 11:49:52;;;;;;;;;;;;;;;24.74;42.56;95554.13;5051084;28;20402;-73
2023/07/23 11:52:22;;;;;;;;;;;;;;;24.55;43.64;95551.09;5052858;28;19921;-73
2023/07/23 11:54:50;;;;;;;;;;;;;;;24.50;44.38;95553.47;5052965;28;19921;-71
2023/07/23 11:57:17;;;;;;;;;;;;;;;24.34;44.58;95546.56;5053141;28;20350;-72
2023/07/23 11:59:43;;;;;;;;;;;;;;;24.36;45.09;95544.56;5053295;28;19921;-72
2023/07/23 12:02:10;;;;;;;;;;;;;;;24.34;45.38;95543.91;5052765;28;19925;-72
2023/07/23 12:04:37;;;;;;;;;;;;;;;24.33;45.70;95539.63;5052887;28;19931;-72
2023/07/23 12:07:05;;;;;;;;;;;;;;;24.34;45.48;95530.66;5048987;28;19924;-72
2023/07/23 12:09:34;;;;;;;;;;;;;;;24.31;45.46;95531.03;5050830;28;19924;-72
2023/07/23 12:12:01;;;;;;;;;;;;;;;24.40;45.29;95526.50;5048333;28;20408;-72
2023/07/23 12:14:28;;;;;;;;;;;;;;;24.47;44.67;95529.19;5048451;28;19935;-72
2023/07/23 12:16:56;;;;;;;;;;;;;;;24.38;44.90;95523.19;5052869;28;19924;-72
2023/07/23 12:19:23;;;;;;;;;;;;;;;24.42;44.56;95528.94;5053287;28;19929;-72
2023/07/23 12:21:52;;;;;;;;;;;;;;;24.36;45.17;95518.09;5053027;28;20274;-72
2023/07/23 12:24:20;;;;;;;;;;;;;;;24.47;44.70;95518.59;5052338;28;20382;-72
2023/07/23 12:26:47;;;;;;;;;;;;;;;24.38;44.72;95518.69;5052699;28;20015;-72
2023/07/23 12:29:15;;;;;;;;;;;;;;;24.30;45.60;95521.47;5047955;28;20374;-72
2023/07/23 12:31:42;;;;;;;;;;;;;;;24.35;45.65;95527.00;5052265;28;19921;-72
2023/07/23 12:34:09;;;;;;;;;;;;;;;24.29;45.86;95519.84;5052544;28;19966;-72
2023/07/23 12:36:35;;;;;;;;;;;;;;;24.17;46.76;95516.03;5050787;28;20564;-72
2023/07/23 12:39:01;;;;;;;;;;;;;;;24.11;46.44;95516.78;5046503;28;20349;-72